Airfield :
LOGIN :

Register | Disclaimer

   EN    FR    IT 

 










Legend :    VFR   Marginal VFR   IFR   Intensive IFR   Very Intensive IFR
Visi :
Ceiling :
>= 8 km
>= 3000ft
5 to 8 km
1000 to 3000 ft
1500m to 5 km
500 to 1000 ft
800 to 1500m
200 to 500 ft
< 800m
< 200 ft
Symbols :   Thunderstorms  Fog  Heavy snow  Heavy precipitations  Wind > 20 kt
SIGMETs :     Misc.  Thunderstorms  Icing  Turbulence  Mountain Waves  Volcanic Ashes







- Airport Elevation : 202 ft
- IATA code : LGW
- Download approach charts


EGKK - London Gatwick

CURRENT METAR :
  • 262120Z 09003KT 2300 HZ NSC 14/13 Q1022

EXPIRED METARs :
  • 262050Z VRB02KT 4400 HZ BKN026 15/14 Q1022
  • 262020Z 09003KT 4000 HZ FEW032 15/13 Q1022
  • 261950Z VRB02KT 4000 HZ FEW030 15/14 Q1022
  • 261920Z VRB02KT 4500 HZ FEW030 16/14 Q1022
  • 261850Z VRB02KT 4500 HZ FEW030 17/14 Q1022

TAF AMD TAF EGKK
Valid from the 26 at 19:00 until the 28 at 00:00 UTC


261900Z 2619/2724 03005KT 5000 HZ SCT030
BECMG 2619/2622 3000 BR
PROB30 2700/2709 0200 FG VV///
BECMG 2709/2712 9999 NSW
BECMG 2712/2715 17010KT
No reported NOTAMs for that airfield.



MET'MAP, your aeronautical weather chart ! - Copyright ORBIFLY December 2007 - Disclaimer

ORBIFLY MET'MAP TEAM :

Programming & Development : Alexandra Zaïnal
Concept & Development : Baudouin d'Aumeries
Co-Development & Prog : Marc-Olivier Méhu
Technical & hardware support : Manuel Goepfert

Contact : metmap@orbifly.com




SOURCES & CREDITS :

   NOAA